Time;durP1;ratioP1;P1;durP2;ratioP2;P2;SDS_P1;SDS_P2;PMS_P1;PMS_P2;Temp;Humidity;BMP_temperature;BMP_pressure;BME280_temperature;BME280_humidity;BME280_pressure;Samples;Min_cycle;Max_cycle;Signal;HPM_P1;HPM_P2
2021/07/12 00:02:20;;;;;;;11.98;9.23;;;;;;;23.57;55.18;99322.44;5015285;28;20037;-72
2021/07/12 00:04:45;;;;;;;11.98;9.55;;;;;;;23.60;54.78;99318.72;5032807;28;20025;-68
2021/07/12 00:07:10;;;;;;;9.60;8.25;;;;;;;23.44;54.82;99322.19;5015197;28;20033;-73
2021/07/12 00:09:36;;;;;;;15.05;8.85;;;;;;;23.85;53.53;99320.41;5014911;28;20499;-71
2021/07/12 00:12:02;;;;;;;17.05;9.38;;;;;;;23.64;53.87;99310.09;5033110;28;20033;-73
2021/07/12 00:14:28;;;;;;;14.68;8.07;;;;;;;23.41;54.44;99320.19;5032511;28;20033;-72
2021/07/12 00:16:53;;;;;;;16.58;9.73;;;;;;;23.38;55.00;99332.47;5032903;28;20541;-72
2021/07/12 00:19:19;;;;;;;13.23;10.30;;;;;;;23.37;54.75;99328.00;5032682;28;20025;-68
2021/07/12 00:21:46;;;;;;;11.27;8.35;;;;;;;23.30;54.97;99328.06;5032572;28;20040;-72
2021/07/12 00:24:11;;;;;;;10.05;8.35;;;;;;;23.53;53.97;99333.91;5032570;28;20053;-68
2021/07/12 00:26:37;;;;;;;10.35;9.00;;;;;;;23.27;54.78;99333.41;5032361;28;20103;-71
2021/07/12 00:29:02;;;;;;;12.90;10.07;;;;;;;23.28;54.98;99346.44;5032379;28;20506;-72
2021/07/12 00:31:28;;;;;;;17.88;10.10;;;;;;;23.44;54.24;99350.72;5031482;28;20414;-72
2021/07/12 00:33:53;;;;;;;14.77;10.18;;;;;;;23.45;54.27;99354.41;5032310;28;20037;-68
2021/07/12 00:36:19;;;;;;;11.48;9.60;;;;;;;23.14;55.08;99349.41;5032231;28;20037;-72
2021/07/12 00:38:44;;;;;;;29.02;10.63;;;;;;;22.91;55.94;99339.47;5014383;28;20395;-72
2021/07/12 00:41:09;;;;;;;16.70;9.50;;;;;;;22.90;56.10;99351.28;5032362;28;20438;-68
2021/07/12 00:43:36;;;;;;;16.13;9.63;;;;;;;22.74;56.70;99344.13;5031924;28;20132;-72
2021/07/12 00:46:02;;;;;;;13.70;9.65;;;;;;;22.88;56.51;99345.19;5032020;28;20509;-69
2021/07/12 00:48:28;;;;;;;13.48;10.10;;;;;;;22.84;56.67;99346.06;5032009;28;20041;-73
2021/07/12 00:50:54;;;;;;;14.02;10.30;;;;;;;22.94;55.82;99332.13;5014001;28;20486;-72
2021/07/12 00:53:19;;;;;;;11.57;10.05;;;;;;;22.81;56.24;99334.69;5031960;28;20056;-72
2021/07/12 00:55:48;;;;;;;12.40;9.05;;;;;;;22.82;56.30;99342.00;5031675;28;20063;-70
2021/07/12 00:58:19;;;;;;;11.45;10.30;;;;;;;23.02;56.21;99336.50;5030640;28;20025;-72
2021/07/12 01:00:46;;;;;;;16.02;11.20;;;;;;;23.09;55.72;99339.28;5031823;28;20064;-72
2021/07/12 01:03:13;;;;;;;11.00;9.57;;;;;;;23.13;55.36;99340.03;5030396;28;20029;-73
2021/07/12 01:05:40;;;;;;;15.60;10.13;;;;;;;22.92;56.03;99337.41;5031496;28;20487;-73
2021/07/12 01:08:05;;;;;;;13.57;10.45;;;;;;;22.90;56.54;99339.88;5031653;28;20032;-72
2021/07/12 01:10:32;;;;;;;14.70;9.88;;;;;;;22.99;56.05;99334.50;5031626;28;20049;-69
2021/07/12 01:13:35;;;;;;;13.85;11.23;;;;;;;23.05;55.36;99335.66;5031506;28;20065;-69
2021/07/12 01:16:00;;;;;;;14.48;10.35;;;;;;;23.15;55.15;99342.47;5021759;28;20045;-72
2021/07/12 01:18:41;;;;;;;13.20;10.25;;;;;;;23.05;55.93;99332.81;5031454;28;20041;-72
2021/07/12 01:21:40;;;;;;;13.38;10.32;;;;;;;22.84;56.13;99342.38;5018884;28;20025;-69
2021/07/12 01:24:42;;;;;;;17.75;10.52;;;;;;;22.78;56.18;99335.53;5031288;28;20056;-72
2021/07/12 01:27:17;;;;;;;11.82;10.07;;;;;;;22.81;56.10;99329.81;5031483;28;20045;-73
2021/07/12 01:30:09;;;;;;;11.95;10.32;;;;;;;22.63;56.58;99324.28;5031324;28;20112;-72
2021/07/12 01:33:00;;;;;;;17.50;10.13;;;;;;;22.80;56.43;99330.22;4978485;28;20526;-72
2021/07/12 01:35:37;;;;;;;13.60;10.13;;;;;;;22.65;56.89;99324.66;5030290;28;20041;-72
2021/07/12 01:38:40;;;;;;;12.80;10.38;;;;;;;22.52;57.44;99330.06;5031179;28;20294;-69
2021/07/12 01:41:43;;;;;;;14.13;10.93;;;;;;;22.45;57.82;99335.81;5031069;28;20029;-72
2021/07/12 01:44:33;;;;;;;13.27;11.40;;;;;;;22.36;57.89;99321.22;5030798;28;20053;-68
2021/07/12 01:47:07;;;;;;;13.30;10.93;;;;;;;22.21;58.87;99331.91;5031231;28;20068;-68
2021/07/12 01:50:34;;;;;;;20.98;11.73;;;;;;;22.45;58.35;99330.09;5030962;28;20129;-72
2021/07/12 01:53:33;;;;;;;13.90;10.75;;;;;;;22.58;57.50;99334.09;4935710;28;20122;-72
2021/07/12 01:56:09;;;;;;;16.38;10.82;;;;;;;22.50;57.61;99331.69;5030694;28;20038;-72
2021/07/12 01:58:43;;;;;;;12.88;10.65;;;;;;;22.61;57.21;99340.16;5030735;28;20521;-68
2021/07/12 02:01:10;;;;;;;14.35;10.73;;;;;;;22.49;57.18;99333.75;5030734;28;20473;-72
2021/07/12 02:03:36;;;;;;;13.13;10.68;;;;;;;22.36;57.65;99332.63;5030587;28;20059;-73
2021/07/12 02:06:06;;;;;;;17.50;10.88;;;;;;;22.41;57.42;99332.16;5030602;28;20033;-68
2021/07/12 02:08:33;;;;;;;13.67;11.40;;;;;;;22.12;58.22;99335.25;5030597;28;20288;-73
2021/07/12 02:11:00;;;;;;;21.88;11.93;;;;;;;22.06;58.25;99342.59;5012638;28;20039;-68
2021/07/12 02:13:27;;;;;;;15.70;11.98;;;;;;;22.08;58.19;99340.13;5012583;28;20422;-72
2021/07/12 02:15:58;;;;;;;20.75;11.18;;;;;;;21.93;58.52;99339.44;5030403;28;20029;-68
2021/07/12 02:18:25;;;;;;;14.27;11.27;;;;;;;22.22;57.07;99340.06;5030470;28;20033;-68
2021/07/12 02:20:52;;;;;;;19.80;10.52;;;;;;;21.87;57.92;99342.69;5030702;28;20108;-68
2021/07/12 02:23:18;;;;;;;16.73;11.25;;;;;;;22.05;57.35;99340.97;5030520;28;20061;-69
2021/07/12 02:25:46;;;;;;;15.75;10.18;;;;;;;21.85;57.55;99342.31;5012472;28;20029;-72
2021/07/12 02:28:13;;;;;;;18.70;10.50;;;;;;;21.58;58.48;99339.16;5030386;28;20581;-72
2021/07/12 02:30:42;;;;;;;16.52;11.98;;;;;;;21.69;58.20;99339.97;5030179;28;20032;-72
2021/07/12 02:33:10;;;;;;;17.63;10.43;;;;;;;21.72;57.82;99342.00;5030304;28;20033;-73
2021/07/12 02:35:36;;;;;;;14.00;10.57;;;;;;;21.73;57.83;99349.31;5030136;28;20410;-68
2021/07/12 02:38:03;;;;;;;15.27;12.05;;;;;;;21.76;57.59;99336.25;5030204;28;20033;-73
2021/07/12 02:40:29;;;;;;;19.17;10.93;;;;;;;21.89;57.13;99339.44;5012177;28;20025;-68
2021/07/12 02:42:57;;;;;;;16.15;10.68;;;;;;;21.70;57.56;99338.72;5030096;28;20136;-68
2021/07/12 02:45:25;;;;;;;12.05;9.93;;;;;;;21.53;58.08;99336.75;5030151;28;20033;-72
2021/07/12 02:47:51;;;;;;;15.95;10.45;;;;;;;21.53;58.26;99342.47;5012151;28;20489;-73
2021/07/12 02:50:17;;;;;;;16.05;10.88;;;;;;;21.62;58.04;99339.97;5030286;28;20061;-71
2021/07/12 02:52:48;;;;;;;19.15;11.55;;;;;;;21.63;57.94;99344.44;5029972;28;20044;-68
2021/07/12 02:55:14;;;;;;;17.45;10.57;;;;;;;21.81;57.59;99349.25;5031670;28;20030;-68
2021/07/12 02:57:40;;;;;;;17.88;10.30;;;;;;;21.88;57.27;99349.22;5034333;28;20045;-72
2021/07/12 03:00:09;;;;;;;16.52;11.02;;;;;;;21.84;57.25;99345.56;5034029;28;20025;-69
2021/07/12 03:02:34;;;;;;;15.68;10.65;;;;;;;21.72;57.70;99346.88;5034221;28;20120;-72
2021/07/12 03:05:00;;;;;;;15.48;10.68;;;;;;;21.56;58.79;99353.81;5016188;28;20116;-69
2021/07/12 03:07:35;;;;;;;13.35;11.13;;;;;;;21.55;58.99;99351.38;5034311;28;20029;-68
2021/07/12 03:10:09;;;;;;;18.73;11.30;;;;;;;21.74;58.46;99362.31;5033807;28;20026;-68
2021/07/12 03:12:51;;;;;;;26.10;11.38;;;;;;;21.90;57.27;99348.78;5034049;28;20498;-68
2021/07/12 03:15:28;;;;;;;22.02;11.57;;;;;;;21.39;58.80;99346.16;5033555;28;20032;-72
2021/07/12 03:17:55;;;;;;;17.85;11.10;;;;;;;21.43;58.68;99350.63;5033785;28;20037;-72
2021/07/12 03:20:21;;;;;;;19.20;10.55;;;;;;;21.40;58.82;99342.09;5015641;28;20028;-69
2021/07/12 03:22:50;;;;;;;15.88;11.68;;;;;;;21.52;58.18;99350.16;5033627;28;20087;-72
2021/07/12 03:25:22;;;;;;;20.00;11.40;;;;;;;21.56;58.39;99348.13;5015708;28;20045;-68
2021/07/12 03:27:51;;;;;;;24.00;11.80;;;;;;;21.41;58.75;99343.72;5033640;28;20057;-72
2021/07/12 03:30:16;;;;;;;14.88;12.02;;;;;;;21.46;58.53;99346.16;5015655;28;20434;-68
2021/07/12 03:32:45;;;;;;;17.30;11.48;;;;;;;21.39;59.01;99357.53;5033834;28;20101;-68
2021/07/12 03:35:14;;;;;;;25.10;11.25;;;;;;;21.09;59.62;99350.34;5033371;28;20076;-68
2021/07/12 03:37:41;;;;;;;26.60;12.00;;;;;;;21.28;59.19;99351.91;5015315;28;20068;-71
2021/07/12 03:40:07;;;;;;;25.05;12.38;;;;;;;21.39;58.76;99355.53;5014875;28;20501;-72
2021/07/12 03:42:34;;;;;;;28.40;11.18;;;;;;;21.50;58.59;99348.97;5030551;28;20083;-72
2021/07/12 03:45:02;;;;;;;19.10;11.25;;;;;;;21.36;58.62;99347.81;5031803;28;20033;-68
2021/07/12 03:47:32;;;;;;;19.10;11.68;;;;;;;21.47;58.59;99350.59;5033343;28;20544;-68
2021/07/12 03:50:16;;;;;;;;;;;;;;;21.47;58.52;99353.44;5033773;28;20514;-69
2021/07/12 03:52:44;;;;;;;18.42;12.77;;;;;;;21.41;58.84;99349.41;5015290;28;19922;-73
2021/07/12 03:55:12;;;;;;;33.25;15.75;;;;;;;21.76;57.81;99358.22;5015352;28;20037;-68
2021/07/12 03:57:39;;;;;;;60.03;17.63;;;;;;;21.55;58.14;99359.91;5015123;28;20033;-68
2021/07/12 04:00:10;;;;;;;40.20;17.25;;;;;;;21.53;58.51;99362.38;5033074;28;20558;-72
2021/07/12 04:02:37;;;;;;;18.42;13.13;;;;;;;21.58;58.65;99361.94;5015014;28;20095;-68
2021/07/12 04:05:04;;;;;;;19.90;12.68;;;;;;;21.62;58.61;99368.44;5032836;28;20029;-73
2021/07/12 04:07:29;;;;;;;12.60;10.55;;;;;;;21.52;58.77;99358.69;5031747;28;20029;-68
2021/07/12 04:09:55;;;;;;;15.77;10.95;;;;;;;21.64;58.57;99371.69;5032536;28;20022;-68
2021/07/12 04:12:23;;;;;;;29.98;14.05;;;;;;;21.53;59.10;99360.31;5014859;28;20033;-72
2021/07/12 04:14:54;;;;;;;23.75;11.70;;;;;;;21.43;59.64;99366.88;5014879;28;20136;-72
2021/07/12 04:17:20;;;;;;;22.67;12.82;;;;;;;21.33;60.06;99365.69;5032998;28;20053;-68
2021/07/12 04:19:46;;;;;;;23.45;13.38;;;;;;;21.65;59.59;99359.06;5032500;28;20029;-72
2021/07/12 04:22:12;;;;;;;19.38;13.65;;;;;;;21.57;59.45;99368.84;5032757;28;20018;-72
2021/07/12 04:24:37;;;;;;;20.08;12.93;;;;;;;21.67;59.46;99367.22;5032580;28;20510;-68
2021/07/12 04:27:03;;;;;;;17.25;13.45;;;;;;;21.68;59.90;99357.47;5014654;28;20029;-72
2021/07/12 04:29:29;;;;;;;19.27;12.07;;;;;;;21.64;59.82;99357.44;5032123;28;20030;-72
2021/07/12 04:31:56;;;;;;;24.05;13.82;;;;;;;21.62;60.12;99354.22;5032406;28;20033;-68
2021/07/12 04:34:22;;;;;;;16.60;11.30;;;;;;;21.74;59.32;99350.94;5032153;28;20101;-74
2021/07/12 04:36:47;;;;;;;134.73;19.25;;;;;;;21.65;60.07;99356.22;5032212;28;20029;-74
2021/07/12 04:39:13;;;;;;;545.90;62.20;;;;;;;21.64;59.88;99354.59;5031936;28;20024;-73
2021/07/12 04:41:38;;;;;;;163.40;25.15;;;;;;;21.92;59.33;99361.38;5032204;28;20036;-74
2021/07/12 04:44:04;;;;;;;68.38;16.02;;;;;;;22.21;58.02;99352.69;5031771;28;20184;-74
2021/07/12 04:46:30;;;;;;;82.05;16.33;;;;;;;22.25;58.28;99356.28;5032024;28;20491;-70
2021/07/12 04:48:55;;;;;;;26.90;11.95;;;;;;;22.29;58.16;99354.22;5014031;28;20029;-73
2021/07/12 04:51:21;;;;;;;27.70;13.18;;;;;;;21.99;59.08;99361.34;5031947;28;20025;-72
2021/07/12 04:53:46;;;;;;;12.75;11.48;;;;;;;22.05;59.18;99360.91;5031615;28;20049;-71
2021/07/12 04:56:12;;;;;;;27.15;12.43;;;;;;;22.01;59.26;99364.59;5013913;28;20030;-72
2021/07/12 04:58:44;;;;;;;19.98;11.50;;;;;;;21.97;59.17;99363.81;5014053;28;20033;-71
2021/07/12 05:01:12;;;;;;;20.60;11.90;;;;;;;22.01;59.88;99370.28;5031724;28;20029;-74
2021/07/12 05:03:38;;;;;;;17.77;10.20;;;;;;;22.19;58.81;99368.56;5030970;28;20037;-75
2021/07/12 05:06:05;;;;;;;15.75;10.82;;;;;;;22.16;58.90;99365.31;5031040;28;20039;-71
2021/07/12 05:08:30;;;;;;;15.80;10.18;;;;;;;22.32;58.12;99363.16;5013798;28;20025;-74
2021/07/12 05:10:56;;;;;;;16.52;10.25;;;;;;;22.25;58.36;99350.59;5013711;28;20128;-73
2021/07/12 05:13:22;;;;;;;12.63;9.43;;;;;;;22.53;57.76;99367.94;5031449;28;20055;-78
2021/07/12 05:15:48;;;;;;;12.30;10.07;;;;;;;22.56;57.12;99361.38;5013608;28;20030;-72
2021/07/12 05:18:14;;;;;;;18.73;10.57;;;;;;;22.49;57.76;99359.41;5031000;28;20045;-74
2021/07/12 05:20:40;;;;;;;14.50;10.43;;;;;;;22.50;58.06;99361.03;5031160;28;20033;-71
2021/07/12 05:23:05;;;;;;;14.77;10.52;;;;;;;22.58;57.87;99356.06;5031409;28;20030;-80
2021/07/12 05:25:31;;;;;;;32.35;13.55;;;;;;;22.67;58.08;99359.25;5030973;28;20391;-76
2021/07/12 05:27:56;;;;;;;38.67;20.05;;;;;;;22.80;57.33;99364.44;5031412;28;20030;-73
2021/07/12 05:30:23;;;;;;;49.00;28.63;;;;;;;22.80;56.99;99362.38;5030562;28;20052;-73
2021/07/12 05:32:48;;;;;;;57.53;28.73;;;;;;;22.92;56.54;99363.06;5012411;28;20030;-73
2021/07/12 05:35:14;;;;;;;20.38;14.18;;;;;;;23.11;55.60;99359.63;5029549;28;20040;-72
2021/07/12 05:37:40;;;;;;;18.27;13.18;;;;;;;23.23;54.30;99360.31;5011440;28;20053;-73
2021/07/12 05:40:07;;;;;;;17.83;11.95;;;;;;;23.36;53.80;99364.25;5011112;28;20025;-74
2021/07/12 05:42:34;;;;;;;33.38;11.65;;;;;;;23.44;53.55;99369.91;5028792;28;20052;-72
2021/07/12 05:45:00;;;;;;;23.15;10.43;;;;;;;23.55;53.35;99359.16;5029283;28;20061;-74
2021/07/12 05:47:25;;;;;;;12.10;10.02;;;;;;;23.56;52.27;99361.56;5029401;28;20404;-72
2021/07/12 05:49:51;;;;;;;18.05;11.73;;;;;;;23.58;53.44;99364.00;5029410;28;20033;-71
2021/07/12 05:52:16;;;;;;;12.60;11.15;;;;;;;23.77;53.38;99353.97;5030318;28;20385;-70
2021/07/12 05:54:42;;;;;;;15.40;10.98;;;;;;;23.79;53.54;99362.13;5030776;28;20032;-71
2021/07/12 05:57:08;;;;;;;13.45;11.35;;;;;;;23.88;52.69;99362.38;5012983;28;20064;-74
2021/07/12 05:59:36;;;;;;;17.13;10.82;;;;;;;23.95;52.03;99356.56;5013194;28;20049;-71
2021/07/12 06:02:02;;;;;;;12.85;10.75;;;;;;;24.03;52.18;99353.63;5030926;28;20546;-75
2021/07/12 06:04:28;;;;;;;18.98;10.95;;;;;;;24.13;52.66;99357.59;5012412;28;20491;-71
2021/07/12 06:06:53;;;;;;;15.05;11.13;;;;;;;24.28;51.58;99352.47;5030889;28;20106;-71
2021/07/12 06:09:19;;;;;;;14.55;11.23;;;;;;;24.38;51.27;99357.22;5030605;28;21077;-74
2021/07/12 06:11:44;;;;;;;15.38;12.43;;;;;;;24.46;51.40;99352.97;5030828;28;20083;-74
2021/07/12 06:14:10;;;;;;;15.68;12.23;;;;;;;24.61;50.68;99347.81;5013000;28;20426;-74
2021/07/12 06:16:35;;;;;;;16.95;11.82;;;;;;;24.64;50.50;99351.88;5012444;28;20029;-74
2021/07/12 06:19:01;;;;;;;13.80;11.10;;;;;;;24.74;49.73;99350.88;5030548;28;20037;-74
2021/07/12 06:21:26;;;;;;;12.75;10.82;;;;;;;24.99;48.30;99349.66;5012720;28;20029;-73
2021/07/12 06:23:52;;;;;;;19.60;10.63;;;;;;;25.02;48.25;99354.47;5031010;28;20454;-75
2021/07/12 06:26:17;;;;;;;11.50;10.35;;;;;;;25.23;47.11;99352.47;5012747;28;20099;-69
2021/07/12 06:28:43;;;;;;;13.95;9.43;;;;;;;25.19;47.59;99360.28;5012614;28;20100;-68
2021/07/12 06:31:08;;;;;;;14.52;10.40;;;;;;;25.25;47.26;99355.69;5030029;28;20113;-71
2021/07/12 06:33:34;;;;;;;12.60;10.88;;;;;;;25.31;47.54;99359.63;5030290;28;20427;-71
2021/07/12 06:35:59;;;;;;;22.85;11.93;;;;;;;25.34;47.96;99358.78;5030336;28;20045;-70
2021/07/12 06:38:25;;;;;;;14.73;11.25;;;;;;;25.41;46.78;99357.00;5030353;28;20037;-71
2021/07/12 06:40:50;;;;;;;14.50;11.07;;;;;;;25.48;47.01;99351.94;5030124;28;20463;-73
2021/07/12 06:43:16;;;;;;;14.20;10.60;;;;;;;25.51;47.92;99356.00;5030267;28;20071;-74
2021/07/12 06:45:43;;;;;;;19.55;10.95;;;;;;;25.56;47.92;99352.63;5012281;28;20072;-74
2021/07/12 06:48:08;;;;;;;15.15;10.88;;;;;;;25.72;47.48;99348.22;5030185;28;20497;-73
2021/07/12 06:50:34;;;;;;;17.25;11.30;;;;;;;25.81;47.41;99345.53;5030059;28;20101;-74
2021/07/12 06:52:59;;;;;;;14.88;12.10;;;;;;;25.86;47.05;99342.16;5030042;28;20029;-73
2021/07/12 06:55:25;;;;;;;24.02;12.13;;;;;;;25.94;48.09;99342.81;5029964;28;20056;-74
2021/07/12 06:57:50;;;;;;;11.48;10.25;;;;;;;25.96;47.78;99333.78;5012509;28;20038;-75
2021/07/12 07:00:16;;;;;;;16.20;10.38;;;;;;;26.04;46.91;99341.75;5012565;28;20026;-74
2021/07/12 07:02:41;;;;;;;11.77;10.32;;;;;;;26.16;46.84;99337.38;5030281;28;20026;-71
2021/07/12 07:05:08;;;;;;;16.90;10.65;;;;;;;26.21;47.27;99336.06;5030140;28;20037;-76
2021/07/12 07:07:35;;;;;;;14.23;10.23;;;;;;;26.24;47.06;99340.91;5030501;28;20581;-79
2021/07/12 07:10:02;;;;;;;13.18;10.32;;;;;;;26.32;45.95;99345.22;5012201;28;20060;-71
2021/07/12 07:12:28;;;;;;;14.73;10.63;;;;;;;26.49;46.19;99346.03;5029823;28;20035;-72
2021/07/12 07:14:53;;;;;;;13.35;9.95;;;;;;;26.58;45.56;99345.38;5029837;28;20038;-75
2021/07/12 07:17:19;;;;;;;12.80;9.95;;;;;;;26.75;45.34;99349.06;5012640;28;20467;-74
2021/07/12 07:19:44;;;;;;;11.00;9.90;;;;;;;26.80;45.49;99349.78;5029946;28;20030;-73
2021/07/12 07:22:10;;;;;;;12.98;10.45;;;;;;;26.81;45.67;99343.56;5030068;28;20406;-75
2021/07/12 07:24:35;;;;;;;15.13;10.07;;;;;;;26.84;45.53;99342.66;5029963;28;20822;-75
2021/07/12 07:27:00;;;;;;;11.70;10.48;;;;;;;27.09;44.83;99344.09;5030003;28;20536;-74
2021/07/12 07:29:26;;;;;;;13.15;10.27;;;;;;;27.09;45.44;99343.28;5030020;28;20034;-74
2021/07/12 07:31:51;;;;;;;18.33;10.55;;;;;;;27.09;45.23;99335.50;5030191;28;20079;-75
2021/07/12 07:34:17;;;;;;;14.02;10.55;;;;;;;27.25;45.28;99336.69;5029915;28;20033;-75
2021/07/12 07:36:42;;;;;;;11.50;10.40;;;;;;;27.27;44.35;99337.88;5011774;28;20034;-74
2021/07/12 07:39:08;;;;;;;21.95;10.68;;;;;;;27.38;43.56;99342.47;5029713;28;20491;-73
2021/07/12 07:41:36;;;;;;;15.40;10.38;;;;;;;27.54;43.34;99333.81;5031750;28;20052;-73
2021/07/12 07:44:03;;;;;;;12.63;9.85;;;;;;;27.52;43.28;99333.44;5033233;28;20076;-74
2021/07/12 07:46:30;;;;;;;15.18;9.90;;;;;;;27.60;44.72;99332.00;5033150;28;20459;-75
2021/07/12 07:48:55;;;;;;;15.98;10.02;;;;;;;27.59;44.16;99341.09;5033032;28;20033;-74
2021/07/12 07:51:21;;;;;;;13.93;10.50;;;;;;;27.70;44.16;99340.75;5033275;28;20048;-74
2021/07/12 07:53:46;;;;;;;12.93;10.13;;;;;;;27.72;43.28;99341.91;5015810;28;20087;-74
2021/07/12 07:56:12;;;;;;;50.90;12.38;;;;;;;27.78;42.62;99336.41;5032403;28;20042;-72
2021/07/12 07:58:37;;;;;;;19.08;10.75;;;;;;;27.93;42.64;99344.56;5033300;28;20033;-71
2021/07/12 08:01:02;;;;;;;24.85;10.60;;;;;;;28.03;42.55;99344.22;5032612;28;20030;-76
2021/07/12 08:03:28;;;;;;;14.55;9.95;;;;;;;28.27;40.95;99340.25;5032801;28;20032;-74
2021/07/12 08:05:53;;;;;;;15.32;10.52;;;;;;;28.38;41.17;99337.00;5032627;28;20033;-72
2021/07/12 08:08:19;;;;;;;14.23;10.15;;;;;;;28.45;42.20;99339.66;5014944;28;20036;-75
2021/07/12 08:10:44;;;;;;;19.15;10.80;;;;;;;28.50;42.65;99332.50;5014798;28;20031;-75
2021/07/12 08:13:10;;;;;;;11.73;9.88;;;;;;;28.61;41.83;99330.06;5014854;28;20037;-73
2021/07/12 08:15:37;;;;;;;16.27;10.65;;;;;;;28.52;42.15;99325.00;5032336;28;20037;-80
2021/07/12 08:18:04;;;;;;;14.45;9.98;;;;;;;28.62;42.39;99331.69;5014936;28;20064;-74
2021/07/12 08:20:29;;;;;;;20.38;10.40;;;;;;;28.84;40.46;99336.69;5021983;28;20053;-73
2021/07/12 08:22:55;;;;;;;21.20;10.52;;;;;;;28.99;41.16;99337.81;5032578;28;20434;-77
2021/07/12 08:25:22;;;;;;;14.48;9.68;;;;;;;28.92;40.90;99337.28;5035827;28;20053;-75
2021/07/12 08:27:48;;;;;;;16.52;9.85;;;;;;;28.95;41.01;99345.75;5012821;28;20510;-79
2021/07/12 08:30:15;;;;;;;10.60;9.43;;;;;;;28.93;39.91;99333.91;5030671;28;20032;-76
2021/07/12 08:32:42;;;;;;;12.07;10.25;;;;;;;29.15;40.03;99333.16;5031392;28;20030;-76
2021/07/12 08:35:10;;;;;;;10.70;9.05;;;;;;;29.16;40.14;99326.13;5031228;28;20439;-78
2021/07/12 08:37:36;;;;;;;17.38;9.77;;;;;;;29.04;39.72;99339.31;5012630;28;20037;-77
2021/07/12 08:40:05;;;;;;;19.02;10.63;;;;;;;29.09;39.84;99329.28;5030786;28;20030;-78
2021/07/12 08:42:31;;;;;;;12.82;10.07;;;;;;;29.27;38.30;99325.72;5030020;28;20477;-74
2021/07/12 08:44:57;;;;;;;60.88;12.65;;;;;;;29.52;37.22;99315.38;5014328;28;20510;-82
2021/07/12 08:47:23;;;;;;;12.82;9.65;;;;;;;29.54;38.65;99321.47;5031195;28;20057;-74
2021/07/12 08:49:48;;;;;;;19.80;9.75;;;;;;;29.60;38.19;99318.78;5031857;28;20426;-82
2021/07/12 08:52:14;;;;;;;10.68;9.43;;;;;;;29.84;37.89;99322.75;5031721;28;20111;-82
2021/07/12 08:54:40;;;;;;;11.32;8.93;;;;;;;29.87;37.53;99314.44;5030707;28;20030;-77
2021/07/12 08:57:06;;;;;;;14.57;8.98;;;;;;;29.93;37.87;99313.34;5032168;28;20022;-76
2021/07/12 08:59:33;;;;;;;10.10;9.05;;;;;;;30.08;36.30;99313.59;5029620;28;20043;-76
2021/07/12 09:02:13;;;;;;;10.35;9.35;;;;;;;30.14;37.53;99312.97;5011795;28;20418;-76
2021/07/12 09:04:47;;;;;;;12.63;9.05;;;;;;;30.27;37.54;99307.88;5029788;28;20083;-76
2021/07/12 09:07:19;;;;;;;11.93;9.02;;;;;;;30.39;37.58;99314.81;5030974;28;20057;-79
2021/07/12 09:10:12;;;;;;;11.50;9.02;;;;;;;30.55;37.77;99316.63;5031031;28;20034;-81
2021/07/12 09:12:50;;;;;;;15.73;9.90;;;;;;;30.70;37.20;99318.91;5021869;28;20493;-74
2021/07/12 09:15:23;;;;;;;11.35;8.82;;;;;;;30.64;37.10;99308.00;5013098;28;20037;-81
2021/07/12 09:17:53;;;;;;;17.48;10.57;;;;;;;30.79;38.38;99307.41;5013772;28;20142;-77
2021/07/12 09:20:31;;;;;;;14.27;9.10;;;;;;;30.72;38.21;99308.50;5031253;28;20022;-78
2021/07/12 09:22:57;;;;;;;11.05;8.48;;;;;;;30.92;37.00;99310.09;5013791;28;20041;-77
2021/07/12 09:25:29;;;;;;;11.02;9.35;;;;;;;30.90;36.94;99304.84;5013305;28;20652;-79
2021/07/12 09:27:56;;;;;;;14.98;9.65;;;;;;;30.88;36.80;99304.50;5013641;28;20479;-74
2021/07/12 09:30:21;;;;;;;11.02;9.27;;;;;;;30.93;36.51;99306.75;5031432;28;20029;-78
2021/07/12 09:32:51;;;;;;;14.88;9.32;;;;;;;31.14;35.46;99307.06;5031327;28;20065;-82
2021/07/12 09:35:19;;;;;;;18.08;8.63;;;;;;;31.16;35.65;99306.56;5013373;28;20029;-78
2021/07/12 09:37:48;;;;;;;13.82;7.93;;;;;;;31.38;33.29;99313.00;5031388;28;20045;-81
2021/07/12 09:40:18;;;;;;;27.27;9.23;;;;;;;31.37;36.10;99304.81;5031151;28;20116;-79
2021/07/12 09:42:49;;;;;;;8.85;7.95;;;;;;;31.27;33.75;99306.13;5030876;28;20061;-80
2021/07/12 09:45:18;;;;;;;11.10;7.57;;;;;;;31.19;34.78;99300.66;5031085;28;20034;-75
2021/07/12 09:47:45;;;;;;;10.48;7.70;;;;;;;31.19;33.64;99302.72;5012806;28;20175;-75
2021/07/12 09:50:22;;;;;;;10.00;8.50;;;;;;;31.23;33.81;99298.41;5012806;28;20064;-75
2021/07/12 09:52:48;;;;;;;11.70;8.25;;;;;;;31.24;34.23;99293.44;5030733;28;20033;-75
2021/07/12 09:55:23;;;;;;;14.63;8.20;;;;;;;31.23;34.47;99300.53;5012926;28;20036;-76
2021/07/12 09:58:21;;;;;;;14.55;7.57;;;;;;;31.46;33.25;99293.25;5030633;28;20522;-78
2021/07/12 10:00:49;;;;;;;16.08;8.57;;;;;;;31.66;33.24;99289.03;5010295;28;20136;-78
2021/07/12 10:03:16;;;;;;;19.02;8.60;;;;;;;31.72;33.58;99289.97;5021395;28;20594;-84
2021/07/12 10:05:44;;;;;;;13.52;8.45;;;;;;;31.75;34.41;99283.22;5030702;28;20033;-77
2021/07/12 10:08:11;;;;;;;26.02;10.15;;;;;;;31.69;33.19;99285.16;5012636;28;20514;-77
2021/07/12 10:10:37;;;;;;;15.48;8.68;;;;;;;31.86;33.57;99285.63;5030344;28;20021;-77
2021/07/12 10:13:02;;;;;;;8.85;7.68;;;;;;;32.07;31.35;99280.06;5012901;28;20095;-77
2021/07/12 10:15:28;;;;;;;12.48;7.65;;;;;;;32.06;31.78;99279.25;5012545;28;20021;-77
2021/07/12 10:17:53;;;;;;;9.38;8.43;;;;;;;31.88;32.26;99276.47;5030648;28;20509;-79
2021/07/12 10:20:20;;;;;;;8.27;7.47;;;;;;;31.91;31.99;99279.16;5012400;28;20024;-78
2021/07/12 10:22:47;;;;;;;10.77;7.63;;;;;;;31.84;31.60;99273.75;5030276;28;20032;-77
2021/07/12 10:25:16;;;;;;;17.17;8.95;;;;;;;31.92;30.50;99268.41;5012538;28;20030;-76
2021/07/12 10:27:53;;;;;;;19.55;8.43;;;;;;;32.05;31.91;99268.97;5012700;28;20069;-77
2021/07/12 10:30:40;;;;;;;14.55;8.90;;;;;;;32.25;32.47;99269.69;5030280;28;20112;-82
2021/07/12 10:33:11;;;;;;;18.40;8.50;;;;;;;32.34;33.31;99261.75;5012471;28;20044;-76
2021/07/12 10:35:48;;;;;;;25.83;9.20;;;;;;;32.38;32.27;99267.38;5029761;28;20025;-71
2021/07/12 10:38:19;;;;;;;20.73;7.88;;;;;;;32.47;30.96;99267.31;5012422;28;20030;-77
2021/07/12 10:40:50;;;;;;;20.05;8.52;;;;;;;32.59;31.50;99262.59;5029895;28;20475;-76
2021/07/12 10:43:46;;;;;;;13.52;8.32;;;;;;;32.51;31.18;99267.13;5029933;28;20053;-76
2021/07/12 10:46:27;;;;;;;10.07;7.18;;;;;;;32.66;29.82;99257.72;5030071;28;20021;-75
2021/07/12 10:48:53;;;;;;;490.08;49.38;;;;;;;32.66;30.07;99255.63;5030090;28;20548;-74
2021/07/12 10:51:20;;;;;;;23.48;7.65;;;;;;;32.76;29.06;99257.16;5012405;28;20434;-74
2021/07/12 10:54:17;;;;;;;14.75;8.05;;;;;;;32.66;29.28;99257.72;5030093;28;20040;-76
2021/07/12 10:56:58;;;;;;;10.07;7.28;;;;;;;32.80;29.89;99247.47;5000466;28;20506;-77
2021/07/12 10:59:28;;;;;;;19.75;8.18;;;;;;;32.97;29.59;99242.84;5012936;28;20033;-76
2021/07/12 11:01:54;;;;;;;9.60;7.20;;;;;;;32.96;27.80;99237.56;5028657;28;20034;-78
2021/07/12 11:04:33;;;;;;;13.32;6.78;;;;;;;33.07;27.70;99243.56;5011217;28;20052;-74
2021/07/12 11:07:00;;;;;;;13.57;6.55;;;;;;;32.99;28.11;99237.34;5012406;28;20065;-74
2021/07/12 11:09:48;;;;;;;8.98;7.30;;;;;;;33.26;27.05;99240.47;5029886;28;20041;-73
2021/07/12 11:12:29;;;;;;;9.13;7.35;;;;;;;33.42;28.58;99242.06;5030329;28;20033;-76
2021/07/12 11:15:08;;;;;;;15.63;7.47;;;;;;;33.47;28.14;99236.41;5012052;28;20046;-76
2021/07/12 11:17:53;;;;;;;11.23;7.43;;;;;;;33.54;27.16;99237.28;5034161;28;20051;-75
2021/07/12 11:20:42;;;;;;;9.50;6.55;;;;;;;33.37;27.81;99231.19;5033557;28;20411;-79
2021/07/12 11:23:09;;;;;;;22.63;7.50;;;;;;;33.25;27.80;99231.00;5015529;28;20034;-74
2021/07/12 11:25:42;;;;;;;15.38;6.93;;;;;;;33.24;27.34;99223.56;5033367;28;20130;-75
2021/07/12 11:28:14;;;;;;;15.55;7.32;;;;;;;33.11;27.97;99225.97;5015045;28;20029;-76
2021/07/12 11:30:43;;;;;;;10.32;6.32;;;;;;;33.32;27.92;99235.59;5033262;28;20037;-75